Latest Weather Observations for Roseworthy

IDS60901

Issued at 1:31 am CDT Friday 21 January 2022 (issued every 10 minutes, with the page automatically refreshed every 10 minutes)

About weather observations | Map of Adelaide area stations | Latest observations for Adelaide area | Other Formats
Station Details ID: 023122 Name: ROSEWORTHY AWS Lat: -34.51 Lon: 138.68 Height: 65.0 m
Data from the previous 72 hours. | See also: Recent months at Roseworthy
Date/Time
CDT
Temp
°C
App
Temp
°C
Dew
Point
°C
Rel
Hum
%
Delta-T
°C
Wind Press
QNH
hPa
Press
MSL
hPa
Rain since
9am
mm
Dir  Spd
km/h
Gust
km/h
Spd
kts
Gust
kts
21/01:30am 27.4 21.0 9.3 32 10.0 E 33 44 18 24 1017.2 1016.9 0.0
21/01:00am 27.7 21.1 8.6 30 10.5 E 33 46 18 25 1017.3 1017.0 0.0
21/12:30am 27.9 21.8 8.2 29 10.7 E 30 39 16 21 1017.3 1017.0 0.0
21/12:00am 28.2 22.5 8.5 29 10.8 E 28 37 15 20 1017.3 1017.0 0.0
 
Date/Time
CDT
Temp
°C
App
Temp
°C
Dew
Point
°C
Rel
Hum
%
Delta-T
°C
Wind Press
QNH
hPa
Press
MSL
hPa
Rain since
9am
mm
Dir  Spd
km/h
Gust
km/h
Spd
kts
Gust
kts
20/11:30pm 28.2 23.3 8.5 29 10.8 E 24 33 13 18 1017.4 1017.1 0.0
20/11:00pm 26.8 23.2 6.8 28 10.6 ESE 15 19 8 10 1017.4 1017.1 0.0
20/10:30pm 27.1 23.9 7.0 28 10.7 ESE 13 17 7 9 1017.3 1017.0 0.0
20/10:00pm 27.8 23.8 6.6 26 11.2 E 17 19 9 10 1017.1 1016.8 0.0
20/09:30pm 28.6 24.2 6.7 25 11.6 E 19 24 10 13 1016.7 1016.4 0.0
20/09:00pm 29.4 24.3 6.1 23 12.3 E 22 30 12 16 1016.3 1016.0 0.0
20/08:30pm 30.3 24.4 5.6 21 13.0 ENE 26 35 14 19 1015.9 1015.6 0.0
20/08:03pm 31.5 25.1 5.1 19 13.9 ENE 28 46 15 25 1015.7 1015.4 0.0
20/08:00pm 31.6 25.6 5.2 19 13.9 ENE 26 39 14 21 1015.7 1015.4 0.0
20/07:30pm 32.5 25.3 5.1 18 14.5 E 32 44 17 24 1015.5 1015.2 0.0
20/07:00pm 33.0 25.2 4.7 17 14.9 ENE 35 44 19 24 1015.4 1015.1 0.0
20/06:30pm 33.9 26.6 4.6 16 15.5 E 32 43 17 23 1015.4 1015.1 0.0
20/06:00pm 34.0 26.1 4.6 16 15.6 E 35 46 19 25 1015.4 1015.1 0.0
20/05:34pm 34.3 27.1 5.8 17 15.4 E 33 54 18 29 1015.3 1015.0 0.0
20/05:30pm 34.1 26.8 5.6 17 15.3 E 33 48 18 26 1015.4 1015.1 0.0
20/05:00pm 34.4 27.2 5.8 17 15.5 E 33 44 18 24 1015.8 1015.5 0.0
20/04:30pm 34.2 26.6 5.7 17 15.4 E 35 48 19 26 1015.9 1015.6 0.0
20/04:00pm 34.2 26.4 6.5 18 15.2 E 37 56 20 30 1016.1 1015.8 0.0
20/03:51pm 34.3 27.2 6.6 18 15.2 E 33 56 18 30 1016.1 1015.8 0.0
20/03:30pm 34.2 27.5 8.0 20 14.7 ENE 33 46 18 25 1016.6 1016.3 0.0
20/03:22pm 33.3 25.6 7.3 20 14.3 E 37 56 20 30 1016.6 1016.3 0.0
20/03:00pm 33.5 27.0 8.9 22 13.9 E 33 48 18 26 1016.9 1016.6 0.0
20/02:30pm 33.1 25.6 7.9 21 14.0 ENE 37 56 20 30 1017.3 1017.0 0.0
20/02:13pm 34.0 27.6 9.3 22 14.1 ENE 33 52 18 28 1017.4 1017.1 0.0
20/02:00pm 33.3 25.6 8.7 22 13.9 ENE 39 54 21 29 1017.5 1017.2 0.0
20/01:30pm 32.8 24.8 7.6 21 13.9 ENE 39 63 21 34 1017.9 1017.6 0.0
20/01:00pm 32.2 23.7 7.1 21 13.7 ENE 41 61 22 33 1018.1 1017.8 0.0
20/12:30pm 32.0 24.0 7.6 22 13.4 ENE 39 57 21 31 1018.4 1018.1 0.0
20/12:15pm 31.6 23.0 8.0 23 13.0 E 43 61 23 33 1018.5 1018.2 0.0
20/12:00pm 31.5 21.7 7.2 22 13.2 E 48 61 26 33 1018.6 1018.3 0.0
20/11:30am 31.0 22.4 10.4 28 11.8 ENE 46 59 25 32 1018.8 1018.5 0.0
20/11:10am 30.6 22.4 10.5 29 11.5 ENE 44 63 24 34 1019.1 1018.8 0.0
20/11:00am 30.3 22.5 11.8 32 10.8 E 44 59 24 32 1019.2 1018.9 0.0
20/10:31am 29.9 22.8 12.3 33 10.3 ENE 41 59 22 32 1019.4 1019.1 0.0
20/10:30am 29.4 22.6 11.9 34 10.2 ENE 39 56 21 30 1019.4 1019.1 0.0
20/10:00am 28.5 21.7 13.2 39 9.1 ENE 41 52 22 28 1019.4 1019.1 0.0
20/09:30am 27.8 21.2 13.7 42 8.4 ENE 41 54 22 29 1019.5 1019.2 0.0
20/09:00am 26.9 20.4 14.0 45 7.7 E 41 50 22 27 1019.3 1019.0 0.0
20/08:30am 26.1 20.8 15.2 51 6.6 E 37 50 20 27 1019.1 1018.8 0.0
20/08:00am 25.0 21.8 16.4 59 5.3 E 28 39 15 21 1019.0 1018.7 0.0
20/07:30am 24.0 21.6 16.3 62 4.7 E 24 33 13 18 1018.8 1018.5 0.0
20/07:00am 23.1 21.3 15.9 64 4.4 E 20 28 11 15 1019.0 1018.7 0.0
20/06:30am 22.9 20.4 15.2 62 4.6 E 22 28 12 15 1018.6 1018.3 0.0
20/06:00am 22.4 20.9 15.3 64 4.2 E 17 22 9 12 1018.4 1018.1 0.0
20/05:30am 22.6 21.4 15.0 62 4.5 E 15 19 8 10 1018.1 1017.8 0.0
20/05:00am 23.7 21.6 15.2 59 5.1 ENE 20 26 11 14 1017.6 1017.3 0.0
20/04:30am 23.2 21.8 14.5 58 5.1 ENE 15 20 8 11 1017.2 1016.9 0.0
20/04:00am 23.5 21.5 13.9 55 5.6 ENE 17 24 9 13 1016.9 1016.6 0.0
20/03:30am 23.3 21.5 13.2 53 5.8 ENE 15 20 8 11 1016.5 1016.2 0.0
20/03:00am 23.1 20.7 11.5 48 6.5 E 15 20 8 11 1016.4 1016.1 0.0
20/02:30am 23.0 20.7 10.4 45 6.9 E 13 17 7 9 1016.5 1016.2 0.0
20/02:00am 22.1 20.4 9.9 46 6.6 E 9 13 5 7 1016.5 1016.2 0.0
20/01:30am 20.9 19.0 8.9 46 6.4 E 9 11 5 6 1016.6 1016.3 0.0
20/01:00am 22.7 20.0 9.1 42 7.3 ESE 13 20 7 11 1016.8 1016.5 0.0
20/12:30am 21.5 18.8 9.1 45 6.6 SE 13 15 7 8 1016.6 1016.3 0.0
20/12:00am 21.6 19.4 9.5 46 6.5 SE 11 15 6 8 1016.5 1016.2 0.0
 
Date/Time
CDT
Temp
°C
App
Temp
°C
Dew
Point
°C
Rel
Hum
%
Delta-T
°C
Wind Press
QNH
hPa
Press
MSL
hPa
Rain since
9am
mm
Dir  Spd
km/h
Gust
km/h
Spd
kts
Gust
kts
19/11:30pm 21.6 19.8 9.5 46 6.5 SE 9 11 5 6 1016.3 1016.0 0.0
19/11:00pm 22.6 20.4 9.4 43 7.1 SE 11 13 6 7 1016.4 1016.1 0.0
19/10:30pm 23.8 21.2 9.4 40 7.8 SE 13 19 7 10 1016.3 1016.0 0.0
19/10:00pm 25.1 22.0 9.0 36 8.8 SSE 15 19 8 10 1016.2 1015.9 0.0
19/09:30pm 25.6 22.5 7.2 31 9.7 SSE 13 15 7 8 1015.7 1015.4 0.0
19/09:00pm 26.6 23.3 6.6 28 10.5 SSE 13 17 7 9 1015.6 1015.3 0.0
19/08:30pm 27.9 24.2 6.1 25 11.4 SE 15 22 8 12 1015.5 1015.2 0.0
19/08:00pm 29.5 24.6 4.9 21 12.8 ESE 20 28 11 15 1015.1 1014.8 0.0
19/07:30pm 30.1 24.4 4.7 20 13.2 E 24 39 13 21 1014.8 1014.5 0.0
19/07:00pm 30.4 24.7 4.9 20 13.3 E 24 35 13 19 1014.7 1014.4 0.0
19/06:30pm 30.4 24.7 4.9 20 13.3 ESE 24 35 13 19 1014.6 1014.3 0.0
19/06:00pm 30.4 24.7 4.9 20 13.3 E 24 35 13 19 1014.5 1014.2 0.0
19/05:30pm 30.3 25.1 5.6 21 13.0 SE 22 32 12 17 1014.6 1014.3 0.0
19/05:00pm 29.9 25.2 5.2 21 12.9 E 19 28 10 15 1014.8 1014.5 0.0
19/04:30pm 30.1 26.0 6.1 22 12.8 SE 17 30 9 16 1014.9 1014.6 0.0
19/04:00pm 29.6 24.7 6.9 24 12.2 SE 22 35 12 19 1015.1 1014.8 0.0
19/03:30pm 29.1 24.9 5.9 23 12.2 E 17 32 9 17 1015.5 1015.2 0.0
19/03:00pm 29.0 24.9 6.4 24 12.0 E 17 26 9 14 1015.7 1015.4 0.0
19/02:30pm 28.6 26.1 8.3 28 11.1 S 11 17 6 9 1016.2 1015.9 0.0
19/02:00pm 28.1 25.3 8.4 29 10.8 SSE 13 28 7 15 1016.4 1016.1 0.0
19/01:30pm 27.1 24.6 8.0 30 10.3 SSE 11 22 6 12 1016.8 1016.5 0.0
19/01:00pm 26.2 22.9 8.2 32 9.7 ESE 15 22 8 12 1017.2 1016.9 0.0
19/12:30pm 26.1 22.7 9.0 34 9.3 SSE 17 26 9 14 1017.5 1017.2 0.0
19/12:00pm 25.3 22.7 9.2 36 8.8 SE 13 24 7 13 1017.8 1017.5 0.0
19/11:30am 24.4 20.8 8.4 36 8.6 SE 17 26 9 14 1018.0 1017.7 0.0
19/11:00am 23.0 18.5 8.7 40 7.6 SE 22 30 12 16 1018.1 1017.8 0.0
19/10:30am 22.1 18.0 8.6 42 7.2 ESE 20 28 11 15 1018.1 1017.8 0.0
19/10:00am 21.2 17.8 9.1 46 6.4 ESE 17 24 9 13 1018.2 1017.9 0.0
19/09:30am 19.9 15.9 8.3 47 6.0 ESE 19 26 10 14 1018.4 1018.1 0.0
19/09:00am 19.1 15.0 8.7 51 5.4 ESE 20 28 11 15 1018.4 1018.1 0.0
19/08:30am 18.5 14.7 9.0 54 5.0 ESE 19 26 10 14 1018.4 1018.1 0.0
19/08:00am 16.6 11.7 8.6 59 4.1 ESE 24 32 13 17 1018.0 1017.7 0.0
19/07:30am 15.8 12.2 8.5 62 3.7 ESE 17 22 9 12 1017.9 1017.6 0.0
19/07:00am 14.8 11.6 8.3 65 3.3 ESE 15 20 8 11 1017.5 1017.2 0.0
19/06:30am 14.2 9.9 7.9 66 3.1 ESE 20 32 11 17 1017.1 1016.8 0.0
19/06:00am 14.2 10.1 7.7 65 3.2 SE 19 28 10 15 1016.9 1016.6 0.0
19/05:30am 14.5 10.8 8.0 65 3.2 SE 17 26 9 14 1016.8 1016.5 0.0
19/05:00am 14.6 11.3 8.1 65 3.3 SE 15 24 8 13 1016.6 1016.3 0.0
19/04:30am 14.9 11.3 8.4 65 3.3 SE 17 30 9 16 1016.4 1016.1 0.0
19/04:00am 15.1 11.2 8.8 66 3.2 SE 19 26 10 14 1016.3 1016.0 0.0
19/03:30am 15.5 11.5 9.0 65 3.3 SE 20 30 11 16 1016.3 1016.0 0.0
19/03:00am 15.8 11.8 9.0 64 3.5 SE 20 28 11 15 1016.2 1015.9 0.0
19/02:30am 16.2 12.3 9.4 64 3.5 SE 20 32 11 17 1016.1 1015.8 0.0
19/02:00am 16.5 13.3 10.1 66 3.4 SE 17 30 9 16 1016.3 1016.0 0.0
19/01:30am 16.8 13.2 10.6 67 3.3 SE 20 30 11 16 1016.2 1015.9 0.0
19/01:00am 16.7 14.1 10.8 68 3.2 SE 15 22 8 12 1016.5 1016.2 0.0
19/12:30am 16.5 13.8 10.4 67 3.2 SE 15 20 8 11 1016.5 1016.2 0.0
19/12:00am 15.7 15.8 10.2 70 2.9 CALM 0 7 0 4 1016.5 1016.2 0.0
 
Date/Time
CDT
Temp
°C
App
Temp
°C
Dew
Point
°C
Rel
Hum
%
Delta-T
°C
Wind Press
QNH
hPa
Press
MSL
hPa
Rain since
9am
mm
Dir  Spd
km/h
Gust
km/h
Spd
kts
Gust
kts
18/11:30pm 16.1 15.0 10.0 67 3.2 S 6 7 3 4 1016.2 1015.9 0.0
18/11:00pm 16.5 14.5 10.1 66 3.4 S 11 15 6 8 1016.2 1015.9 0.0
18/10:30pm 16.9 14.1 10.1 64 3.6 S 15 20 8 11 1016.1 1015.8 0.0
18/10:00pm 17.1 13.9 9.8 62 3.8 S 17 22 9 12 1016.0 1015.7 0.0
18/09:30pm 17.6 13.8 9.8 60 4.1 S 20 30 11 16 1016.2 1015.9 0.0
18/09:00pm 18.3 14.6 9.4 56 4.7 SSE 19 28 10 15 1016.0 1015.7 0.0
18/08:30pm 19.3 15.4 9.5 53 5.2 SSE 20 30 11 16 1015.5 1015.2 0.0
18/08:00pm 20.3 17.0 9.5 50 5.8 SSE 17 28 9 15 1015.2 1014.9 0.0
18/07:30pm 21.2 16.3 9.8 48 6.1 SSE 26 37 14 20 1014.7 1014.4 0.0
18/07:00pm 22.3 18.4 9.5 44 6.9 SSE 20 28 11 15 1013.8 1013.5 0.0
18/06:30pm 23.1 18.7 8.8 40 7.7 SE 22 32 12 17 1013.7 1013.4 0.0
18/06:00pm 24.2 20.1 8.6 37 8.4 SE 20 28 11 15 1013.7 1013.4 0.0
18/05:30pm 23.5 18.9 8.0 37 8.2 SE 22 32 12 17 1013.7 1013.4 0.0
18/05:00pm 24.6 20.0 8.1 35 8.8 SE 22 32 12 17 1013.8 1013.5 0.0
18/04:30pm 24.5 20.1 7.6 34 8.9 SSE 20 35 11 19 1014.0 1013.7 0.0
18/04:00pm 24.7 20.3 7.4 33 9.1 SE 20 30 11 16 1014.1 1013.8 0.0
18/03:30pm 24.9 20.6 8.0 34 9.0 SE 20 28 11 15 1014.0 1013.7 0.0
18/03:00pm 25.8 23.7 9.6 36 8.9 SE 11 19 6 10 1014.1 1013.8 0.0
18/02:30pm 24.8 20.9 8.7 36 8.7 SSE 19 28 10 15 1014.4 1014.1 0.0
18/02:00pm 25.1 21.7 9.0 36 8.8 SSE 17 28 9 15 1014.6 1014.3 0.0
18/01:30pm 24.3 20.7 8.3 36 8.5 S 17 30 9 16 1014.9 1014.6 0.0
18/01:00pm 24.3 19.7 8.3 36 8.6 SE 22 33 12 18 1015.2 1014.9 0.0
18/12:30pm 24.4 21.1 9.6 39 8.1 SSE 17 28 9 15 1015.4 1015.1 0.0
18/12:00pm 23.6 19.7 8.8 39 7.9 SE 19 28 10 15 1015.6 1015.3 0.0
18/11:30am 22.1 18.6 8.9 43 7.0 SSE 17 24 9 13 1016.0 1015.7 0.0
18/11:00am 22.0 18.0 9.2 44 6.9 SE 20 33 11 18 1016.3 1016.0 0.0
18/10:30am 21.5 16.8 9.1 45 6.6 SE 24 33 13 18 1016.6 1016.3 0.0
18/10:00am 20.3 15.4 8.3 46 6.3 ESE 24 35 13 19 1017.0 1016.7 0.0
18/09:30am 18.7 13.3 7.8 49 5.6 ESE 26 35 14 19 1016.8 1016.5 0.0
18/09:00am 18.6 13.0 8.6 52 5.2 SE 28 35 15 19 1016.8 1016.5 0.0
18/08:30am 17.4 11.9 7.7 53 4.9 SE 26 33 14 18 1016.4 1016.1 0.0
18/08:00am 16.8 12.1 7.7 55 4.6 SE 22 30 12 16 1016.2 1015.9 0.0
18/07:30am 16.3 11.8 8.5 60 4.0 SE 22 28 12 15 1016.0 1015.7 0.0
18/07:00am 15.4 11.6 8.9 65 3.3 SE 19 24 10 13 1015.9 1015.6 0.0
18/06:30am 15.0 11.6 9.1 68 3.0 ESE 17 26 9 14 1015.5 1015.2 0.0
18/06:00am 15.2 12.2 9.3 68 3.0 ESE 15 22 8 12 1015.0 1014.7 0.0
18/05:30am 15.1 12.4 9.0 67 3.1 SE 13 20 7 11 1014.7 1014.4 0.0
18/05:00am 14.8 12.9 9.0 68 3.0 SE 9 13 5 7 1014.6 1014.3 0.0
18/04:30am 15.1 12.4 9.0 67 3.1 SE 13 20 7 11 1014.5 1014.2 0.0
18/04:00am 15.0 12.7 9.1 68 3.0 SE 11 15 6 8 1014.2 1013.9 0.0
18/03:30am 14.4 12.9 9.2 71 2.7 ESE 7 9 4 5 1014.1 1013.8 0.0
18/03:00am 15.4 12.7 9.1 66 3.2 SE 13 19 7 10 1014.2 1013.9 0.0
18/02:30am 15.9 12.5 9.3 65 3.4 SE 17 22 9 12 1014.2 1013.9 0.0
18/02:00am 15.9 13.4 9.8 67 3.2 SE 13 17 7 9 1014.3 1014.0 0.0

Latest Capital City Observations: Canberra | Sydney | Melbourne | Brisbane | Adelaide | Perth | Hobart | Darwin

Other formats

Comma delimited format used in spreadsheet applications
http://www.bom.gov.au/fwo/IDS60901/IDS60901.95671.axf

JavaScript Object Notation format (JSON) in row-major order
http://www.bom.gov.au/fwo/IDS60901/IDS60901.95671.json

Data quality

Most of these data are generated automatically and are frequently updated. Quality checks on data are not normally performed. It is possible for incorrect values to appear. Refer to information at About Latest Weather Observations and please check the disclaimer before using these data.